Skip Navigation LinksHome page > Weather > Current weather Skip Navigation Links

Current Weather

Culpeper Regional, Culpeper, Va.

For information only: do not use for flight planning or navigation.
Latest weather
Observation time Tuesday, January 19, 2021 2:15 AM EST
Local time Tuesday, January 19, 2021 2:39 AM EST
Flight conditions Visual Meteorological Conditions
Winds
Wind direction West-Southwest (240°)
Wind speed 3 mph
Visibility 10 mi.
Sky condition
Ceiling 6,500 ft. overcast
Cloud layer overcast 6,500 ft.
Temperature 33°F
Dewpoint 22°F
Altimeter 30.12 in.Hg
Derived measurements
Relative humidity 61%
Wind chill 30°F
Density altitude -1584 ft.
Remarks
Fully automated report.
Automated weather observing station with precipitation discriminator.
METAR KCJR 190715Z AUTO 24003KT 10SM OVC065 01/M06 A3012 RMK AO2 T00081058

Settings

Location code

InnerDrive.Weather 4.0.6770.0 Release CLR 4.0.30319.42000
Copyright ©2018 Inner Drive Technology. All rights reserved. Portions Copyright ©1986-2018 David Braverman.

Find weather

Site navigation


Skip Navigation Links

Place info

Page info

PayPal - The safer, easier way to pay online!

Return home.

Copyright ©2021 Inner Drive Technology. Purveyors of fine, hand-crafted computer software. Page printed 2021-01-19T07:39:43 UTC.